createdAt,value
2023-01-05T00:00:17.671Z,3.65
2023-01-05T00:01:20.589Z,3.97
2023-01-05T00:02:24.529Z,3.70
2023-01-05T00:03:30.638Z,3.65
2023-01-05T00:04:33.937Z,3.80
2023-01-05T00:05:36.731Z,3.72
2023-01-05T00:06:39.930Z,3.90
2023-01-05T00:07:43.463Z,4.05
2023-01-05T00:08:46.950Z,3.50
2023-01-05T00:09:49.685Z,4.35
2023-01-05T00:11:10.981Z,3.88
2023-01-05T00:12:31.932Z,3.78
2023-01-05T00:15:08.065Z,3.95
2023-01-05T00:16:33.669Z,4.45
2023-01-05T00:17:54.960Z,3.85
2023-01-05T00:19:16.199Z,3.35
2023-01-05T00:20:39.238Z,4.25
2023-01-05T00:22:00.983Z,4.32
2023-01-05T00:23:04.395Z,3.50
2023-01-05T00:24:07.468Z,3.88
2023-01-05T00:25:13.477Z,3.92
2023-01-05T00:26:16.280Z,4.30
2023-01-05T00:27:19.095Z,4.22
2023-01-05T00:28:21.757Z,3.78
2023-01-05T00:29:26.723Z,4.05
2023-01-05T00:30:36.319Z,3.95
2023-01-05T00:31:39.123Z,3.60
2023-01-05T00:32:43.278Z,3.60
2023-01-05T00:33:45.958Z,3.30
2023-01-05T00:34:50.739Z,4.15
2023-01-05T00:35:53.462Z,3.85
2023-01-05T00:36:56.199Z,3.38
2023-01-05T00:37:59.046Z,3.63
2023-01-05T00:39:01.751Z,3.40
2023-01-05T00:40:06.545Z,4.05
2023-01-05T00:41:09.239Z,3.33
2023-01-05T00:42:11.994Z,3.47
2023-01-05T00:43:14.860Z,3.63
2023-01-05T00:44:17.636Z,4.28
2023-01-05T00:45:22.160Z,3.50
2023-01-05T00:46:25.182Z,3.60
2023-01-05T00:47:30.388Z,4.00
2023-01-05T00:48:33.214Z,4.30
2023-01-05T00:49:36.582Z,3.67
2023-01-05T00:50:39.580Z,3.85
2023-01-05T00:51:42.576Z,3.72
2023-01-05T00:52:45.783Z,3.80
2023-01-05T00:53:49.156Z,3.72
2023-01-05T00:54:51.985Z,3.88
2023-01-05T00:55:58.479Z,4.30
2023-01-05T00:57:02.008Z,3.28
2023-01-05T00:58:04.779Z,3.65
2023-01-05T00:59:07.651Z,3.97
2023-01-05T01:00:17.676Z,3.88
2023-01-05T01:01:20.615Z,3.67
2023-01-05T01:02:23.663Z,3.65
2023-01-05T01:03:26.657Z,3.67
2023-01-05T01:04:34.487Z,3.35
2023-01-05T01:05:37.244Z,3.63
2023-01-05T01:06:40.068Z,3.42
2023-01-05T01:07:42.822Z,3.72
2023-01-05T01:08:46.018Z,3.47
2023-01-05T01:09:48.747Z,3.55
2023-01-05T01:10:51.628Z,2.88
2023-01-05T01:11:55.343Z,3.63
2023-01-05T01:12:58.076Z,3.83
2023-01-05T01:14:01.106Z,3.70
2023-01-05T01:15:04.762Z,3.50
2023-01-05T01:16:12.161Z,3.13
2023-01-05T01:17:16.234Z,3.50
2023-01-05T01:18:19.071Z,3.30
2023-01-05T01:19:24.911Z,3.95
2023-01-05T01:20:27.754Z,3.60
2023-01-05T01:21:30.502Z,3.20
2023-01-05T01:22:33.167Z,3.65
2023-01-05T01:23:39.789Z,3.30
2023-01-05T01:24:42.830Z,2.92
2023-01-05T01:25:47.666Z,2.90
2023-01-05T01:26:50.668Z,3.10
2023-01-05T01:27:53.611Z,2.60
2023-01-05T01:28:58.038Z,2.47
2023-01-05T01:30:00.905Z,2.72
2023-01-05T01:31:04.162Z,2.92
2023-01-05T01:32:07.052Z,2.83
2023-01-05T01:33:09.831Z,2.75
2023-01-05T01:34:12.947Z,1.98
2023-01-05T01:35:17.049Z,2.03
2023-01-05T01:36:20.632Z,2.42
2023-01-05T01:37:23.404Z,2.03
2023-01-05T01:38:28.997Z,2.30
2023-01-05T01:39:32.059Z,2.30
2023-01-05T01:40:41.567Z,2.78
2023-01-05T01:41:44.554Z,2.28
2023-01-05T01:42:47.402Z,2.42
2023-01-05T01:43:52.793Z,2.30
2023-01-05T01:44:59.979Z,1.92
2023-01-05T01:46:07.573Z,2.10
2023-01-05T01:47:24.427Z,2.50
2023-01-05T01:48:27.162Z,2.13
2023-01-05T01:49:30.728Z,1.92
2023-01-05T01:50:46.211Z,2.35
2023-01-05T01:51:49.103Z,2.65
2023-01-05T01:52:55.428Z,2.22
2023-01-05T01:54:04.997Z,2.40
2023-01-05T01:55:08.337Z,2.35
2023-01-05T01:56:15.241Z,2.30
2023-01-05T01:57:18.073Z,2.10
2023-01-05T01:58:23.664Z,2.03
2023-01-05T01:59:27.826Z,2.15
2023-01-05T02:00:30.677Z,1.88
2023-01-05T02:01:34.225Z,2.00
2023-01-05T02:02:37.712Z,1.45
2023-01-05T02:03:41.166Z,2.03
2023-01-05T02:04:44.912Z,2.17
2023-01-05T02:05:47.827Z,2.13
2023-01-05T02:06:50.962Z,2.05
2023-01-05T02:07:53.764Z,1.73
2023-01-05T02:08:56.574Z,1.58
2023-01-05T02:09:59.585Z,1.80
2023-01-05T02:11:38.797Z,2.03
2023-01-05T02:13:02.846Z,2.13
2023-01-05T02:14:28.869Z,2.20
2023-01-05T02:16:02.349Z,2.40
2023-01-05T02:17:28.977Z,2.05
2023-01-05T02:19:03.960Z,1.90
2023-01-05T02:20:37.545Z,2.10
2023-01-05T02:22:10.106Z,2.33
2023-01-05T02:23:34.673Z,2.30
2023-01-05T02:25:01.908Z,1.77
2023-01-05T02:26:24.892Z,2.13
2023-01-05T02:27:49.070Z,2.13
2023-01-05T02:29:08.179Z,2.17
2023-01-05T02:30:54.467Z,2.03
2023-01-05T02:32:11.231Z,2.38
2023-01-05T02:33:40.704Z,2.15
2023-01-05T02:35:02.793Z,2.00
2023-01-05T02:36:28.907Z,2.17
2023-01-05T02:38:49.916Z,2.33
2023-01-05T02:39:58.236Z,2.20
2023-01-05T02:41:36.178Z,2.20
2023-01-05T02:42:40.380Z,2.33
2023-01-05T02:43:46.264Z,2.55
2023-01-05T02:44:49.001Z,2.70
2023-01-05T02:45:51.865Z,2.60
2023-01-05T02:47:08.265Z,2.30
2023-01-05T02:48:11.575Z,2.65
2023-01-05T02:49:17.392Z,2.60
2023-01-05T02:50:52.345Z,2.28
2023-01-05T02:52:00.041Z,2.40
2023-01-05T02:53:19.573Z,2.85
2023-01-05T02:54:43.955Z,2.10
2023-01-05T02:56:02.525Z,2.65
2023-01-05T02:57:17.474Z,2.20
2023-01-05T02:58:34.516Z,2.60
2023-01-05T02:59:54.421Z,2.63
2023-01-05T03:01:11.048Z,2.85
2023-01-05T03:02:24.696Z,2.65
2023-01-05T03:03:54.975Z,2.80
2023-01-05T03:05:36.339Z,2.50
2023-01-05T03:06:56.742Z,2.30
2023-01-05T03:08:10.507Z,2.30
2023-01-05T03:09:20.709Z,2.22
2023-01-05T03:10:43.630Z,2.65
2023-01-05T03:12:22.719Z,2.17
2023-01-05T03:13:43.114Z,2.63
2023-01-05T03:15:08.749Z,2.40
2023-01-05T03:16:20.457Z,2.60
2023-01-05T03:17:35.859Z,2.50
2023-01-05T03:18:59.798Z,2.45
2023-01-05T03:20:06.690Z,1.88
2023-01-05T03:21:09.891Z,2.70
2023-01-05T03:22:48.552Z,2.50
2023-01-05T03:24:12.492Z,2.55
2023-01-05T03:25:38.741Z,2.50
2023-01-05T03:27:01.084Z,2.70
2023-01-05T03:28:25.610Z,2.20
2023-01-05T03:29:47.282Z,2.28
2023-01-05T03:31:36.078Z,2.00
2023-01-05T03:33:10.309Z,2.40
2023-01-05T03:35:15.563Z,2.20
2023-01-05T03:36:24.537Z,2.58
2023-01-05T03:37:53.902Z,2.08
2023-01-05T03:39:02.367Z,2.58
2023-01-05T03:40:17.056Z,2.08
2023-01-05T03:41:23.337Z,2.50
2023-01-05T03:42:28.997Z,2.45
2023-01-05T03:43:38.861Z,2.20
2023-01-05T03:44:46.454Z,2.05
2023-01-05T03:45:57.817Z,2.15
2023-01-05T03:47:03.636Z,2.20
2023-01-05T03:48:07.643Z,2.28
2023-01-05T03:49:11.460Z,1.88
2023-01-05T03:50:14.940Z,2.00
2023-01-05T03:51:18.529Z,2.45
2023-01-05T03:52:22.827Z,2.15
2023-01-05T03:53:26.346Z,2.20
2023-01-05T03:54:30.256Z,2.08
2023-01-05T03:55:33.539Z,2.08
2023-01-05T03:56:37.337Z,1.60
2023-01-05T03:57:41.652Z,2.20
2023-01-05T03:58:45.089Z,1.40
2023-01-05T03:59:48.278Z,1.80
2023-01-05T04:00:52.230Z,1.85
2023-01-05T04:01:58.088Z,1.90
2023-01-05T04:03:01.962Z,1.60
2023-01-05T04:04:05.122Z,1.75
2023-01-05T04:05:08.984Z,1.92
2023-01-05T04:06:13.196Z,1.80
2023-01-05T04:07:17.713Z,1.35
2023-01-05T04:08:20.907Z,1.60
2023-01-05T04:09:23.987Z,2.00
2023-01-05T04:10:27.264Z,1.73
2023-01-05T04:11:30.968Z,1.63
2023-01-05T04:12:39.009Z,1.70
2023-01-05T04:13:43.139Z,1.80
2023-01-05T04:14:46.397Z,1.27
2023-01-05T04:15:49.707Z,1.60
2023-01-05T04:16:52.809Z,1.50
2023-01-05T04:17:59.298Z,1.40
2023-01-05T04:19:02.524Z,1.27
2023-01-05T04:20:06.539Z,1.40
2023-01-05T04:21:10.524Z,1.13
2023-01-05T04:22:14.616Z,1.33
2023-01-05T04:23:19.615Z,1.10
2023-01-05T04:24:23.568Z,1.05
2023-01-05T04:25:26.744Z,1.00
2023-01-05T04:26:29.883Z,1.30
2023-01-05T04:27:33.150Z,1.08
2023-01-05T04:28:36.477Z,1.17
2023-01-05T04:29:39.648Z,1.55
2023-01-05T04:30:46.036Z,1.35
2023-01-05T04:31:49.223Z,1.10
2023-01-05T04:32:54.146Z,0.93
2023-01-05T04:33:57.735Z,1.05
2023-01-05T04:35:08.806Z,0.80
2023-01-05T04:36:16.013Z,0.88
2023-01-05T04:37:19.188Z,1.30
2023-01-05T04:38:22.812Z,1.40
2023-01-05T04:39:25.930Z,1.02
2023-01-05T04:40:30.166Z,1.35
2023-01-05T04:41:33.437Z,1.40
2023-01-05T04:42:36.618Z,0.98
2023-01-05T04:43:40.093Z,1.45
2023-01-05T04:44:43.591Z,0.80
2023-01-05T04:45:48.924Z,1.00
2023-01-05T04:46:52.686Z,1.33
2023-01-05T04:47:56.552Z,1.60
2023-01-05T04:48:59.702Z,1.67
2023-01-05T04:50:03.089Z,1.00
2023-01-05T04:51:06.440Z,1.15
2023-01-05T04:52:12.928Z,0.77
2023-01-05T04:53:16.157Z,0.70
2023-01-05T04:54:19.358Z,0.65
2023-01-05T04:55:23.327Z,1.02
2023-01-05T04:56:27.157Z,1.10
2023-01-05T04:57:30.434Z,1.05
2023-01-05T04:58:34.295Z,0.90
2023-01-05T04:59:38.123Z,0.65
2023-01-05T05:00:41.394Z,0.90
2023-01-05T05:01:44.814Z,0.70
2023-01-05T05:02:51.061Z,0.70
2023-01-05T05:03:55.083Z,0.90
2023-01-05T05:05:00.706Z,0.63
2023-01-05T05:06:04.194Z,1.23
2023-01-05T05:07:08.270Z,0.93
2023-01-05T05:08:11.453Z,1.05
2023-01-05T05:09:16.329Z,0.90
2023-01-05T05:10:19.689Z,1.35
2023-01-05T05:11:24.095Z,1.20
2023-01-05T05:12:27.682Z,0.85
2023-01-05T05:13:31.323Z,0.90
2023-01-05T05:14:36.603Z,1.27
2023-01-05T05:15:39.938Z,0.90
2023-01-05T05:16:44.267Z,1.95
2023-01-05T05:17:48.441Z,0.90
2023-01-05T05:18:53.084Z,1.10
2023-01-05T05:20:00.333Z,0.82
2023-01-05T05:21:04.025Z,1.35
2023-01-05T05:22:10.225Z,0.80
2023-01-05T05:23:13.590Z,0.80
2023-01-05T05:24:16.990Z,0.80
2023-01-05T05:25:22.235Z,0.80
2023-01-05T05:26:25.666Z,0.63
2023-01-05T05:27:30.762Z,0.65
2023-01-05T05:28:33.864Z,0.85
2023-01-05T05:29:36.966Z,1.13
2023-01-05T05:30:40.092Z,0.80
2023-01-05T05:31:43.373Z,0.82
2023-01-05T05:32:46.663Z,1.20
2023-01-05T05:33:49.817Z,0.77
2023-01-05T05:34:52.933Z,1.08
2023-01-05T05:35:56.138Z,0.85
2023-01-05T05:36:59.273Z,0.70
2023-01-05T05:38:02.391Z,0.93
2023-01-05T05:39:05.672Z,0.85
2023-01-05T05:40:09.793Z,0.93
2023-01-05T05:41:13.005Z,0.80
2023-01-05T05:42:16.189Z,0.57
2023-01-05T05:43:19.389Z,0.90
2023-01-05T05:44:22.505Z,0.70
2023-01-05T05:45:25.683Z,0.98
2023-01-05T05:46:29.190Z,0.80
2023-01-05T05:47:32.463Z,0.90
2023-01-05T05:48:35.621Z,1.00
2023-01-05T05:49:38.726Z,0.80
2023-01-05T05:50:41.767Z,0.93
2023-01-05T05:51:44.848Z,0.80
2023-01-05T05:52:48.112Z,0.98
2023-01-05T05:53:52.643Z,0.80
2023-01-05T05:54:55.803Z,0.47
2023-01-05T05:55:59.012Z,0.63
2023-01-05T05:57:02.136Z,0.80
2023-01-05T05:58:05.222Z,0.75
2023-01-05T05:59:08.354Z,0.85
2023-01-05T06:00:12.370Z,0.57
2023-01-05T06:01:18.349Z,0.70
2023-01-05T06:02:21.682Z,0.70
2023-01-05T06:03:25.082Z,0.70
2023-01-05T06:04:28.237Z,0.60
2023-01-05T06:05:31.515Z,0.80
2023-01-05T06:06:34.724Z,0.63
2023-01-05T06:07:37.895Z,1.00
2023-01-05T06:08:41.112Z,0.70
2023-01-05T06:09:44.215Z,1.02
2023-01-05T06:10:49.829Z,0.60
2023-01-05T06:11:52.935Z,0.70
2023-01-05T06:12:56.809Z,0.85
2023-01-05T06:14:00.368Z,0.63
2023-01-05T06:15:04.027Z,0.75
2023-01-05T06:16:07.789Z,0.90
2023-01-05T06:17:11.041Z,0.80
2023-01-05T06:18:14.247Z,0.63
2023-01-05T06:19:17.485Z,0.90
2023-01-05T06:20:20.786Z,0.68
2023-01-05T06:21:24.022Z,1.20
2023-01-05T06:22:27.089Z,0.88
2023-01-05T06:23:30.438Z,1.00
2023-01-05T06:24:33.630Z,0.60
2023-01-05T06:25:36.932Z,0.80
2023-01-05T06:26:40.108Z,0.60
2023-01-05T06:27:43.163Z,0.93
2023-01-05T06:28:46.371Z,1.25
2023-01-05T06:29:49.599Z,0.68
2023-01-05T06:30:52.700Z,1.00
2023-01-05T06:31:55.852Z,0.80
2023-01-05T06:32:59.106Z,0.60
2023-01-05T06:34:02.333Z,1.00
2023-01-05T06:35:06.493Z,1.25
2023-01-05T06:36:09.795Z,0.70
2023-01-05T06:37:13.248Z,0.70
2023-01-05T06:38:16.594Z,0.80
2023-01-05T06:39:19.824Z,0.50
2023-01-05T06:40:23.686Z,0.70
2023-01-05T06:41:26.768Z,0.63
2023-01-05T06:42:30.103Z,0.80
2023-01-05T06:43:33.165Z,0.95
2023-01-05T06:44:36.348Z,0.65
2023-01-05T06:45:39.591Z,0.60
2023-01-05T06:46:42.713Z,0.70
2023-01-05T06:47:45.756Z,0.73
2023-01-05T06:48:48.848Z,0.93
2023-01-05T06:49:51.919Z,0.45
2023-01-05T06:50:55.051Z,0.90
2023-01-05T06:51:58.140Z,0.80
2023-01-05T06:53:01.724Z,0.90
2023-01-05T06:54:04.772Z,1.20
2023-01-05T06:55:12.581Z,1.08
2023-01-05T06:56:15.726Z,1.20
2023-01-05T06:57:18.787Z,0.88
2023-01-05T06:58:21.848Z,0.60
2023-01-05T06:59:24.973Z,1.00
2023-01-05T07:00:28.828Z,1.27
2023-01-05T07:01:32.040Z,1.00
2023-01-05T07:02:35.462Z,1.10
2023-01-05T07:03:38.664Z,0.80
2023-01-05T07:04:41.774Z,1.02
2023-01-05T07:05:44.895Z,0.70
2023-01-05T07:06:48.155Z,0.93
2023-01-05T07:07:51.880Z,1.20
2023-01-05T07:08:55.239Z,1.05
2023-01-05T07:09:58.514Z,1.33
2023-01-05T07:11:01.570Z,1.30
2023-01-05T07:12:05.665Z,1.25
2023-01-05T07:13:08.902Z,1.58
2023-01-05T07:14:12.072Z,1.58
2023-01-05T07:15:15.294Z,1.63
2023-01-05T07:16:19.067Z,1.20
2023-01-05T07:17:22.178Z,1.38
2023-01-05T07:18:25.326Z,1.42
2023-01-05T07:19:28.453Z,1.65
2023-01-05T07:20:31.613Z,1.52
2023-01-05T07:21:34.821Z,1.38
2023-01-05T07:22:37.974Z,1.35
2023-01-05T07:23:41.123Z,1.48
2023-01-05T07:24:44.427Z,1.30
2023-01-05T07:25:47.574Z,1.27
2023-01-05T07:26:50.676Z,1.23
2023-01-05T07:27:53.790Z,1.67
2023-01-05T07:28:58.575Z,1.45
2023-01-05T07:30:01.677Z,1.73
2023-01-05T07:31:07.665Z,1.60
2023-01-05T07:32:10.981Z,1.33
2023-01-05T07:33:14.066Z,1.27
2023-01-05T07:34:17.155Z,1.33
2023-01-05T07:35:20.230Z,1.58
2023-01-05T07:36:24.032Z,1.63
2023-01-05T07:37:27.677Z,1.67
2023-01-05T07:38:33.073Z,1.05
2023-01-05T07:39:36.171Z,1.20
2023-01-05T07:40:39.284Z,1.13
2023-01-05T07:41:42.993Z,1.17
2023-01-05T07:42:52.177Z,1.45
2023-01-05T07:43:55.278Z,1.27
2023-01-05T07:44:58.739Z,1.58
2023-01-05T07:46:04.070Z,1.52
2023-01-05T07:47:07.472Z,1.70
2023-01-05T07:48:10.691Z,1.65
2023-01-05T07:49:13.992Z,1.70
2023-01-05T07:50:17.201Z,1.73
2023-01-05T07:51:22.282Z,1.65
2023-01-05T07:52:25.469Z,1.70
2023-01-05T07:53:30.883Z,1.45
2023-01-05T07:54:34.071Z,1.77
2023-01-05T07:55:37.418Z,1.95
2023-01-05T07:56:40.527Z,1.77
2023-01-05T07:57:43.909Z,2.00
2023-01-05T07:58:47.407Z,1.40
2023-01-05T07:59:50.633Z,1.50
2023-01-05T08:00:54.279Z,2.10
2023-01-05T08:01:57.576Z,1.80
2023-01-05T08:03:00.840Z,2.20
2023-01-05T08:04:04.194Z,1.70
2023-01-05T08:05:08.140Z,1.60
2023-01-05T08:06:15.169Z,1.80
2023-01-05T08:07:18.381Z,1.50
2023-01-05T08:08:24.524Z,1.38
2023-01-05T08:09:46.582Z,1.50
2023-01-05T08:10:49.695Z,1.50
2023-01-05T08:11:52.843Z,2.03
2023-01-05T08:13:20.032Z,1.80
2023-01-05T08:14:23.178Z,1.40
2023-01-05T08:15:26.332Z,1.50
2023-01-05T08:16:32.215Z,1.40
2023-01-05T08:17:35.322Z,1.48
2023-01-05T08:18:38.386Z,1.23
2023-01-05T08:19:41.525Z,1.23
2023-01-05T08:20:52.117Z,1.85
2023-01-05T08:21:55.176Z,1.17
2023-01-05T08:22:58.236Z,1.30
2023-01-05T08:24:01.309Z,1.83
2023-01-05T08:25:05.470Z,1.50
2023-01-05T08:26:15.970Z,1.20
2023-01-05T08:27:19.049Z,1.55
2023-01-05T08:28:29.940Z,1.50
2023-01-05T08:29:38.104Z,1.55
2023-01-05T08:30:41.525Z,1.05
2023-01-05T08:31:44.845Z,1.58
2023-01-05T08:32:48.275Z,1.23
2023-01-05T08:33:51.721Z,1.10
2023-01-05T08:34:55.692Z,1.25
2023-01-05T08:35:59.032Z,1.80
2023-01-05T08:37:02.300Z,1.38
2023-01-05T08:38:05.647Z,1.30
2023-01-05T08:39:11.814Z,1.10
2023-01-05T08:40:15.026Z,1.13
2023-01-05T08:41:31.369Z,0.98
2023-01-05T08:42:34.460Z,1.48
2023-01-05T08:43:37.585Z,1.40
2023-01-05T08:44:40.752Z,1.00
2023-01-05T08:45:48.555Z,1.40
2023-01-05T08:46:51.722Z,0.80
2023-01-05T08:47:54.965Z,1.50
2023-01-05T08:49:00.545Z,1.25
2023-01-05T08:50:03.863Z,1.08
2023-01-05T08:51:07.671Z,1.10
2023-01-05T08:52:11.024Z,1.20
2023-01-05T08:53:14.617Z,1.40
2023-01-05T08:54:17.837Z,1.00
2023-01-05T08:55:21.233Z,0.95
2023-01-05T08:56:26.303Z,1.05
2023-01-05T08:57:30.715Z,1.73
2023-01-05T08:58:33.954Z,0.77
2023-01-05T08:59:37.718Z,1.80
2023-01-05T09:00:40.982Z,1.48
2023-01-05T09:01:44.359Z,1.25
2023-01-05T09:02:48.500Z,1.50
2023-01-05T09:03:51.702Z,1.40
2023-01-05T09:04:54.815Z,1.33
2023-01-05T09:06:02.673Z,1.30
2023-01-05T09:07:05.979Z,1.20
2023-01-05T09:08:09.077Z,1.05
2023-01-05T09:09:12.354Z,1.35
2023-01-05T09:10:16.015Z,1.23
2023-01-05T09:11:25.439Z,0.90
2023-01-05T09:12:33.021Z,0.90
2023-01-05T09:13:36.997Z,1.20
2023-01-05T09:14:40.281Z,1.60
2023-01-05T09:15:43.462Z,1.90
2023-01-05T09:17:06.625Z,1.30
2023-01-05T09:18:09.835Z,1.67
2023-01-05T09:19:14.385Z,1.90
2023-01-05T09:20:17.953Z,1.83
2023-01-05T09:21:21.159Z,1.38
2023-01-05T09:22:24.292Z,1.73
2023-01-05T09:23:27.702Z,1.40
2023-01-05T09:24:30.815Z,1.80
2023-01-05T09:25:33.992Z,1.55
2023-01-05T09:26:37.031Z,1.48
2023-01-05T09:27:41.471Z,1.42
2023-01-05T09:28:45.434Z,1.80
2023-01-05T09:29:48.703Z,1.50
2023-01-05T09:30:51.992Z,1.02
2023-01-05T09:31:55.252Z,1.58
2023-01-05T09:32:58.457Z,1.30
2023-01-05T09:34:01.655Z,2.13
2023-01-05T09:35:05.228Z,2.00
2023-01-05T09:36:10.447Z,1.73
2023-01-05T09:37:13.694Z,2.05
2023-01-05T09:38:16.922Z,1.45
2023-01-05T09:39:21.911Z,1.77
2023-01-05T09:40:25.650Z,1.65
2023-01-05T09:41:40.695Z,0.90
2023-01-05T09:42:46.823Z,1.05
2023-01-05T09:44:23.065Z,1.70
2023-01-05T09:45:28.497Z,0.98
2023-01-05T09:46:39.942Z,1.35
2023-01-05T09:47:46.708Z,1.40
2023-01-05T09:48:56.451Z,2.13
2023-01-05T09:50:01.360Z,1.00
2023-01-05T09:51:04.621Z,0.88
2023-01-05T09:52:10.983Z,0.90
2023-01-05T09:53:17.819Z,1.83
2023-01-05T09:54:22.651Z,1.30
2023-01-05T09:55:31.683Z,1.52
2023-01-05T09:57:08.005Z,1.52
2023-01-05T09:58:16.355Z,1.30
2023-01-05T09:59:38.909Z,1.75
2023-01-05T10:01:02.423Z,1.67
2023-01-05T10:02:42.504Z,1.40
2023-01-05T10:04:09.244Z,1.52
2023-01-05T10:05:14.864Z,1.92
2023-01-05T10:06:30.012Z,1.70
2023-01-05T10:07:54.040Z,1.27
2023-01-05T10:08:57.377Z,1.30
2023-01-05T10:10:08.862Z,1.40
2023-01-05T10:12:18.385Z,1.50
2023-01-05T10:13:30.964Z,1.27
2023-01-05T10:15:13.949Z,1.40
2023-01-05T10:16:18.307Z,2.00
2023-01-05T10:17:41.233Z,1.70
2023-01-05T10:18:47.061Z,1.75
2023-01-05T10:19:51.209Z,1.88
2023-01-05T10:21:20.157Z,1.73
2023-01-05T10:23:31.137Z,1.50
2023-01-05T10:25:00.647Z,1.50
2023-01-05T10:26:51.078Z,1.30
2023-01-05T10:28:15.243Z,1.38
2023-01-05T10:29:53.239Z,1.38
2023-01-05T10:31:13.000Z,1.73
2023-01-05T10:32:50.097Z,1.60
2023-01-05T10:34:11.492Z,1.73
2023-01-05T10:35:58.965Z,1.70
2023-01-05T10:37:09.107Z,1.73
2023-01-05T10:38:33.785Z,1.80
2023-01-05T10:40:14.966Z,2.22
2023-01-05T10:41:41.206Z,1.40
2023-01-05T10:43:00.518Z,1.52
2023-01-05T10:44:28.186Z,1.45
2023-01-05T10:45:31.865Z,2.03
2023-01-05T10:46:45.900Z,2.35
2023-01-05T10:47:52.032Z,2.05
2023-01-05T10:48:55.272Z,1.65
2023-01-05T10:50:01.418Z,2.13
2023-01-05T10:51:06.339Z,1.55
2023-01-05T10:52:18.665Z,1.85
2023-01-05T10:53:26.751Z,2.00
2023-01-05T10:54:43.325Z,1.85
2023-01-05T10:55:52.307Z,2.08
2023-01-05T10:56:55.477Z,2.50
2023-01-05T10:57:58.843Z,2.72
2023-01-05T10:59:11.774Z,2.28
2023-01-05T11:00:18.332Z,2.45
2023-01-05T11:01:30.910Z,2.38
2023-01-05T11:02:47.235Z,2.97
2023-01-05T11:04:28.877Z,2.92
2023-01-05T11:05:35.160Z,3.22
2023-01-05T11:06:38.676Z,2.55
2023-01-05T11:08:01.377Z,2.92
2023-01-05T11:09:22.326Z,2.88
2023-01-05T11:10:48.077Z,2.78
2023-01-05T11:12:19.549Z,2.47
2023-01-05T11:13:33.479Z,2.88
2023-01-05T11:14:44.507Z,3.08
2023-01-05T11:15:56.629Z,2.20
2023-01-05T11:17:06.997Z,2.45
2023-01-05T11:18:36.311Z,2.40
2023-01-05T11:19:47.066Z,2.40
2023-01-05T11:22:30.921Z,1.98
2023-01-05T11:23:50.099Z,2.13
2023-01-05T11:24:53.364Z,2.38
2023-01-05T11:26:37.552Z,2.15
2023-01-05T11:27:41.218Z,2.20
2023-01-05T11:28:59.420Z,2.20
2023-01-05T11:30:21.306Z,2.25
2023-01-05T11:31:53.872Z,1.95
2023-01-05T11:32:59.114Z,2.47
2023-01-05T11:34:18.212Z,1.83
2023-01-05T11:35:38.228Z,1.88
2023-01-05T11:36:42.990Z,1.90
2023-01-05T11:37:46.758Z,1.92
2023-01-05T11:38:57.063Z,2.15
2023-01-05T11:40:04.602Z,1.80
2023-01-05T11:41:12.099Z,2.08
2023-01-05T11:42:34.172Z,2.22
2023-01-05T11:43:38.242Z,2.30
2023-01-05T11:44:51.203Z,2.25
2023-01-05T11:45:59.584Z,2.30
2023-01-05T11:47:05.532Z,2.05
2023-01-05T11:48:09.052Z,2.17
2023-01-05T11:49:12.315Z,2.30
2023-01-05T11:50:25.376Z,2.03
2023-01-05T11:51:40.125Z,1.95
2023-01-05T11:52:52.404Z,2.42
2023-01-05T11:53:55.576Z,2.03
2023-01-05T11:54:58.965Z,2.30
2023-01-05T11:56:16.116Z,2.35
2023-01-05T11:57:25.043Z,2.28
2023-01-05T11:58:49.035Z,2.42
2023-01-05T11:59:52.220Z,2.20
2023-01-05T12:01:13.027Z,2.40
2023-01-05T12:04:29.918Z,2.20
2023-01-05T12:05:54.863Z,1.98
2023-01-05T12:07:34.545Z,1.70
2023-01-05T12:09:12.084Z,1.73
2023-01-05T12:10:42.812Z,2.08
2023-01-05T12:12:26.311Z,1.77
2023-01-05T12:14:04.740Z,1.60
2023-01-05T12:15:56.013Z,1.77
2023-01-05T12:17:16.269Z,1.75
2023-01-05T12:18:39.581Z,2.00
2023-01-05T12:20:24.814Z,2.85
2023-01-05T12:22:15.331Z,3.03
2023-01-05T12:24:27.729Z,2.45
2023-01-05T12:25:52.103Z,1.45
2023-01-05T12:27:34.828Z,1.27
2023-01-05T12:34:32.984Z,1.58
2023-01-05T12:36:23.078Z,1.58
2023-01-05T12:37:28.829Z,1.45
2023-01-05T12:39:31.555Z,1.50
2023-01-05T12:40:59.812Z,1.85
2023-01-05T12:42:23.864Z,1.60
2023-01-05T12:44:01.935Z,1.30
2023-01-05T12:45:44.518Z,1.60
2023-01-05T12:47:34.356Z,1.08
2023-01-05T12:49:15.845Z,1.73
2023-01-05T12:50:35.934Z,1.73
2023-01-05T12:51:50.001Z,1.50
2023-01-05T12:53:02.359Z,1.98
2023-01-05T12:54:26.813Z,1.60
2023-01-05T12:55:42.164Z,2.00
2023-01-05T12:57:00.640Z,1.92
2023-01-05T12:58:54.259Z,1.80
2023-01-05T13:00:14.658Z,2.00
2023-01-05T13:01:25.874Z,1.42
2023-01-05T13:02:37.819Z,1.83
2023-01-05T13:03:55.988Z,1.58
2023-01-05T13:05:19.670Z,1.58
2023-01-05T13:06:24.834Z,1.30
2023-01-05T13:07:38.146Z,1.30
2023-01-05T13:08:49.762Z,1.40
2023-01-05T13:10:15.370Z,1.40
2023-01-05T13:11:23.795Z,1.25
2023-01-05T13:12:26.955Z,1.38
2023-01-05T13:14:09.552Z,1.20
2023-01-05T13:15:17.115Z,1.73
2023-01-05T13:16:39.151Z,1.50
2023-01-05T13:17:53.194Z,1.55
2023-01-05T13:19:22.866Z,1.40
2023-01-05T13:20:43.991Z,1.38
2023-01-05T13:21:48.625Z,1.20
2023-01-05T13:23:02.325Z,1.30
2023-01-05T13:24:52.423Z,1.30
2023-01-05T13:26:00.172Z,1.58
2023-01-05T13:27:04.381Z,1.58
2023-01-05T13:28:17.281Z,1.13
2023-01-05T13:29:41.922Z,1.30
2023-01-05T13:31:35.686Z,1.38
2023-01-05T13:33:06.090Z,1.23
2023-01-05T13:34:39.188Z,1.40
2023-01-05T13:36:17.747Z,1.30
2023-01-05T13:37:32.313Z,1.60
2023-01-05T13:39:22.263Z,1.50
2023-01-05T13:40:28.971Z,1.20
2023-01-05T13:41:31.976Z,1.30
2023-01-05T13:43:21.470Z,1.25
2023-01-05T13:44:27.479Z,1.17
2023-01-05T13:45:56.165Z,1.15
2023-01-05T13:47:32.049Z,1.10
2023-01-05T13:49:15.618Z,1.33
2023-01-05T13:51:00.104Z,1.50
2023-01-05T13:52:24.141Z,1.42
2023-01-05T13:53:30.104Z,0.90
2023-01-05T13:55:02.346Z,1.55
2023-01-05T13:56:20.557Z,1.27
2023-01-05T13:57:39.338Z,1.83
2023-01-05T13:58:59.791Z,0.98
2023-01-05T14:00:12.581Z,1.30
2023-01-05T14:01:44.334Z,1.30
2023-01-05T14:03:22.926Z,1.30
2023-01-05T14:04:33.402Z,1.42
2023-01-05T14:06:02.685Z,1.58
2023-01-05T14:07:14.711Z,1.65
2023-01-05T14:08:34.683Z,1.65
2023-01-05T14:09:43.891Z,1.57
2023-01-05T14:11:17.130Z,1.42
2023-01-05T14:12:20.321Z,1.73
2023-01-05T14:13:52.622Z,1.73
2023-01-05T14:15:24.050Z,2.17
2023-01-05T14:16:37.600Z,1.40
2023-01-05T14:17:52.981Z,1.25
2023-01-05T14:19:45.706Z,1.52
2023-01-05T14:20:56.335Z,1.60
2023-01-05T14:22:08.258Z,1.45
2023-01-05T14:23:23.563Z,1.40
2023-01-05T14:24:48.087Z,1.00
2023-01-05T14:25:58.350Z,1.23
2023-01-05T14:27:11.139Z,1.55
2023-01-05T14:28:25.900Z,1.13
2023-01-05T14:31:16.308Z,0.95
2023-01-05T14:32:39.536Z,1.30
2023-01-05T14:33:57.596Z,1.13
2023-01-05T14:35:37.181Z,1.33
2023-01-05T14:37:00.402Z,1.00
2023-01-05T14:38:14.533Z,1.55
2023-01-05T14:39:20.347Z,1.30
2023-01-05T14:40:29.270Z,1.30
2023-01-05T14:41:32.965Z,0.95
2023-01-05T14:42:43.791Z,1.60
2023-01-05T14:45:24.667Z,1.00
2023-01-05T14:46:42.219Z,1.55
2023-01-05T14:47:52.757Z,1.80
2023-01-05T14:49:11.402Z,1.27
2023-01-05T14:50:29.664Z,1.33
2023-01-05T14:51:35.149Z,1.70
2023-01-05T14:53:14.931Z,1.15
2023-01-05T14:54:40.964Z,1.90
2023-01-05T14:55:52.871Z,1.95
2023-01-05T14:57:27.050Z,1.02
2023-01-05T14:58:36.418Z,1.70
2023-01-05T14:59:40.499Z,1.65
2023-01-05T15:01:03.175Z,1.73
2023-01-05T15:02:22.472Z,2.33
2023-01-05T15:03:45.771Z,2.08
2023-01-05T15:04:54.264Z,2.22
2023-01-05T15:06:18.500Z,2.60
2023-01-05T15:07:56.553Z,2.72
2023-01-05T15:09:37.057Z,3.40
2023-01-05T15:11:23.905Z,2.05
2023-01-05T15:12:48.250Z,2.40
2023-01-05T15:14:37.403Z,2.80
2023-01-05T15:15:49.997Z,1.85
2023-01-05T15:17:05.119Z,2.35
2023-01-05T15:18:43.230Z,1.85
2023-01-05T15:20:24.230Z,2.33
2023-01-05T15:21:35.656Z,2.00
2023-01-05T15:23:18.652Z,2.28
2023-01-05T15:24:51.927Z,2.00
2023-01-05T15:26:44.369Z,2.15
2023-01-05T15:28:11.916Z,1.70
2023-01-05T15:29:46.376Z,2.03
2023-01-05T15:31:30.553Z,1.80
2023-01-05T15:32:40.809Z,2.22
2023-01-05T15:33:55.350Z,1.75
2023-01-05T15:35:28.162Z,1.77
2023-01-05T15:36:40.734Z,1.70
2023-01-05T15:37:47.304Z,1.60
2023-01-05T15:38:50.472Z,1.77
2023-01-05T15:39:56.432Z,2.63
2023-01-05T15:41:08.967Z,2.40
2023-01-05T15:42:28.659Z,2.10
2023-01-05T15:43:33.407Z,1.90
2023-01-05T15:44:45.891Z,1.92
2023-01-05T15:45:53.432Z,1.60
2023-01-05T15:46:56.969Z,1.50
2023-01-05T15:48:28.755Z,1.35
2023-01-05T15:49:34.063Z,1.30
2023-01-05T15:50:58.692Z,1.60
2023-01-05T15:52:02.500Z,1.73
2023-01-05T15:53:05.654Z,1.48
2023-01-05T15:54:28.464Z,1.73
2023-01-05T15:55:31.695Z,1.52
2023-01-05T15:56:41.654Z,1.70
2023-01-05T15:58:04.196Z,1.13
2023-01-05T15:59:35.122Z,1.77
2023-01-05T16:00:38.281Z,2.50
2023-01-05T16:01:41.397Z,2.42
2023-01-05T16:02:45.085Z,2.05
2023-01-05T16:03:49.923Z,2.50
2023-01-05T16:05:22.718Z,2.60